Terminal Aerodrome Forecast
Issued by NWS Blacksburg, VA

Home | Current Version | Previous Version | Text Only | Print | Product List | Glossary On
Versions: 1 2 3 4 5 6 7 8 9 10 11 12 13
000
FTUS41 KRNK 221725
TAFDAN
TAF
KDAN 221725Z 2218/2318 00000KT P6SM SCT060 OVC080
      TEMPO 2218/2220 4SM -RA OVC020
     FM222100 00000KT P6SM BKN050
      TEMPO 2221/2223 2SM -RA OVC030
     FM230600 00000KT 3SM BR OVC025
     FM231400 20004KT P6SM SCT060=

USA.gov is the U.S. government's official web portal to all federal, state and local government web resources and services.